Welcome to our Virtual Airline
Sign-in:

Flight MFC631051

  • Submitted By: William Butler
  • Departure Airport: Gen Abelardo L Rodriguez Intl (MMTJ)
  • Arrival Airport: Yuma MCAS/Yuma Intl (KNYL)
  • Aircraft: CESSNA 182 (N182MM)
  • Flight Time: 01.18.21
  • Date Submitted: 21/08/06
  • Route: STOP-OVER AT 1. AQUA CALIENTE (L54). 2. EL CENTRO NAF (KNJK)
  • Status: Accepted
Flight Details
Gross Revenue:
(2 load / $ 145.00 per unit
$ 290.00
Fuel Cost:
(43.5449 fuel used @ 5.1 / unit)
$ 222.08

Additional Log Information:

View Log

[22:55] ----- Flight Opened -----
[22:55] Cigar Box - 1.1.4.0
[22:55] FS: FSX
[22:55] FSUIPC: v4.929
[22:55] Flight Number: MFC631051
[22:55] FS Aircraft: C182_N516DM
[22:55] FS Model: C182
[22:55] FS Type: Cessna
[22:55] Departure: MMTJ
[22:55] Arrival: KNYL
[22:55] Flight Level: 7500
[22:55] Flight Type: H
[22:55] Passengers: 2
[22:55] FOB: 366 lbs
[22:55] Gate: 8 - MMTJ
[22:55] NOTE: Parking Brake Ignored
[22:55] Crash Detection: Disabled
[22:55] Crash Detection Aircraft: Disabled
[22:55] Engines: 1 Piston
[22:55] NOTE: Boarding has started
[22:55] Engine 1: Started
[22:55] Light Data: Navigation ON
[22:55] Light Data: Beacon ON
[22:55] Light Data: Strobe lights ON
[22:55] Light Data: Instrument lights ON
[22:55] Main Door Closed
[22:55] COM1: 128.30
[22:55] COM2: 127.80
[22:55] Transponder: 1200
[22:55] NAV1: 113.70
[22:55] NAV2: 110.60
[22:55] ADF1: 284.0
[22:55] ADF2: 240.0
[22:55] Navigation Mode: NAV
[22:56] Engine 1: Stopped
[22:56] Engine 1: Started
[22:56] Light Data: Taxi lights ON
[22:57] NOTE: Taxi started
[22:59] NOTE: ----- TAKE OFF -----
[22:59] GS: 75 knots
[22:59] TAS: 77 knots
[22:59] IAS: 76 knots
[22:59] VS: 3 fpm
[22:59] FOB: 365 lbs
[22:59] Heading: 77°
[22:59] Pitch: 4°
[22:59] Bank: 0°
[22:59] Aircraft Weight: 2451.32 lbs
[22:59] Nearest Airport: MMTJ
[22:59] Distance: 0.17 miles
[22:59] Runway: 9 - MMTJ
[22:59] Ground Surface: Tarmac
[22:59] Ground Condition: Normal
[22:59] NOTE: Weather Report
[22:59] Wind Heading: 347°
[22:59] Wind Speed: 0 knots
[22:59] OAT: 14° C
[22:59] TAT: 15° C
[22:59] Precipitation: None
[22:59] Dew Point: 4° C
[22:59] Visibility: 62 miles
[22:59] METAR: MMTJ 060342Z 33006KT 8SM SKC 19/17 A2993 RMK HZY ST W
[22:59] NOTE: Climb started
[22:59] View Mode: Virtual Cockpit
[23:10] NOTE: TOC reached
[23:10] NOTE: Cruise started
[23:10] GS: 104 knots
[23:10] TAS: 97 knots
[23:10] IAS: 87 knots
[23:10] VS: 195 fpm
[23:10] FOB: 349 lbs
[23:10] Heading: 3°
[23:10] Pitch: 3°
[23:10] Bank: 0°
[23:10] Aircraft Weight: 2435.29 lbs
[23:13] FS: Paused
[23:13] FS: Unpaused
[23:16] Recovery: Flight Saved
[23:18] NOTE: TOD reached
[23:18] NOTE: Descent started
[23:18] GS: 173 knots
[23:18] TAS: 153 knots
[23:18] IAS: 139 knots
[23:18] VS: -870 fpm
[23:18] FOB: 336 lbs
[23:18] Heading: 83°
[23:18] Pitch: 2°
[23:18] Bank: 1°
[23:18] Aircraft Weight: 2422.23 lbs
[23:18] NOTE: On approach
[23:28] NOTE: ----- LANDED -----
[23:28] Landing Rate: -86.89 fpm
[23:28] GS: 64 knots
[23:28] TAS: 64 knots
[23:28] IAS: 63 knots
[23:28] VS: -84 fpm
[23:28] FOB: 324 lbs
[23:28] Heading: 110°
[23:28] Pitch: 2°
[23:28] Bank: 1°
[23:28] Aircraft Weight: 2410.11 lbs
[23:28] Nearest Airport: L54
[23:28] Distance: 0.05 miles
[23:28] Runway: 11 - L54
[23:28] Ground Surface: Tarmac
[23:28] Ground Condition: Normal
[23:28] NOTE: Weather Report
[23:28] Wind Heading: 347°
[23:28] Wind Speed: 0 knots
[23:28] OAT: 13° C
[23:28] TAT: 14° C
[23:28] Precipitation: None
[23:28] Dew Point: 3° C
[23:28] Visibility: 62 miles
[23:28] METAR: KNYL 060457Z AUTO 17009KT 10SM CLR 34/21 A2977 RMK AO2 SLP076 T03440211 $
[23:28] View Mode: Virtual Cockpit
[23:29] View Mode: Virtual Cockpit
[23:38] Recovery: Flight Saved
[23:48] NOTE: ----- LANDED -----
[23:48] Landing Rate: -50.75 fpm
[23:48] GS: 62 knots
[23:48] TAS: 62 knots
[23:48] IAS: 62 knots
[23:48] VS: -50 fpm
[23:48] FOB: 300 lbs
[23:48] Heading: 84°
[23:48] Pitch: 1°
[23:48] Bank: -2°
[23:48] Aircraft Weight: 2386.39 lbs
[23:48] Nearest Airport: KNJK
[23:48] Distance: 0.57 miles
[23:48] Runway: 8 - KNJK
[23:48] Ground Surface: Asphalt
[23:48] Ground Condition: Normal
[23:48] NOTE: Weather Report
[23:48] Wind Heading: 347°
[23:48] Wind Speed: 0 knots
[23:48] OAT: 16° C
[23:48] TAT: 16° C
[23:48] Precipitation: None
[23:48] Dew Point: 6° C
[23:48] Visibility: 62 miles
[23:48] METAR: KNYL 060457Z AUTO 17009KT 10SM CLR 34/21 A2977 RMK AO2 SLP076 T03440211 $
[23:48] View Mode: Virtual Cockpit
[23:48] NOTE: Taxi started
[23:48] View Mode: Virtual Cockpit
[23:52] FS: Paused
[23:52] FS: Unpaused
[00:07] NOTE: ----- LANDED -----
[00:07] Landing Rate: -83.05 fpm
[00:07] GS: 97 knots
[00:07] TAS: 98 knots
[00:07] IAS: 97 knots
[00:07] VS: -83 fpm
[00:07] FOB: 278 lbs
[00:07] Heading: 36°
[00:07] Pitch: 1°
[00:07] Bank: 1°
[00:07] Aircraft Weight: 2364.68 lbs
[00:07] Nearest Airport: KNYL
[00:07] Distance: 0.30 miles
[00:07] Runway: 3R - KYUM
[00:07] Ground Surface: Concrete
[00:07] Ground Condition: Normal
[00:07] NOTE: Weather Report
[00:07] Wind Heading: 348°
[00:07] Wind Speed: 0 knots
[00:07] OAT: 16° C
[00:07] TAT: 17° C
[00:07] Precipitation: None
[00:07] Dew Point: 6° C
[00:07] Visibility: 62 miles
[00:07] METAR: KNYL 060457Z AUTO 17009KT 10SM CLR 34/21 A2977 RMK AO2 SLP076 T03440211 $
[00:07] View Mode: Virtual Cockpit
[00:08] View Mode: Virtual Cockpit
[00:11] NOTE: ----- LANDED -----
[00:11] Landing Rate: -59.98 fpm
[00:11] GS: 62 knots
[00:11] TAS: 63 knots
[00:11] IAS: 62 knots
[00:11] VS: -59 fpm
[00:11] FOB: 272 lbs
[00:11] Heading: 38°
[00:11] Pitch: 2°
[00:11] Bank: 0°
[00:11] Aircraft Weight: 2358.15 lbs
[00:11] Nearest Airport: KNYL
[00:11] Distance: 1.14 miles
[00:11] Runway: 3L - KYUM
[00:11] Ground Surface: Concrete
[00:11] Ground Condition: Normal
[00:11] NOTE: Weather Report
[00:11] Wind Heading: 348°
[00:11] Wind Speed: 0 knots
[00:11] OAT: 16° C
[00:11] TAT: 16° C
[00:11] Precipitation: None
[00:11] Dew Point: 6° C
[00:11] Visibility: 62 miles
[00:11] METAR: KNYL 060457Z AUTO 17009KT 10SM CLR 34/21 A2977 RMK AO2 SLP076 T03440211 $
[00:11] View Mode: Virtual Cockpit
[00:16] Light Data: Landing lights ON
[00:16] Gate: 14 - KYUM
[00:16] NOTE: Flight Completed
[00:16] FS Aircraft: C182_N516DM
[00:16] FS Model: C182
[00:16] FS Type: Cessna
[00:16] FOB: 271 lbs
[00:16] Fuel Used: 96 lbs
[00:16] Flight Time: 01:18:21
[00:16] Flight Time (Dawn): 00:00:00
[00:16] Flight Time (Day): 01:18:21
[00:16] Flight Time (Dusk): 00:00:00
[00:16] Flight Time (Night): 00:00:00
[00:16] Total Landings: 4
[00:16] MaxSim Rate: 1x
[00:16] Cigar Box - 1.1.4.0
[00:16] ----- Flight Closed -----

Route Map